Time;durP1;ratioP1;P1;durP2;ratioP2;P2;SDS_P1;SDS_P2;PMS_P1;PMS_P2;Temp;Humidity;BMP_temperature;BMP_pressure;BME280_temperature;BME280_humidity;BME280_pressure;Samples;Min_cycle;Max_cycle;Signal;HPM_P1;HPM_P2
2023/01/19 00:00:45;;;;;;;20.63;14.38;;;;;;;0.11;100.00;99195.59;5019633;28;20784;-69
2023/01/19 00:03:14;;;;;;;23.58;15.43;;;;;;;-0.57;100.00;99095.06;5008405;28;20852;-68
2023/01/19 00:05:42;;;;;;;22.20;15.68;;;;;;;-0.17;100.00;99175.69;5007478;28;21013;-70
2023/01/19 00:08:14;;;;;;;21.73;15.65;;;;;;;0.03;100.00;99192.38;5006822;28;20912;-70
2023/01/19 00:10:44;;;;;;;21.15;14.63;;;;;;;0.10;100.00;99206.81;5008104;28;20037;-69
2023/01/19 00:13:10;;;;;;;21.73;15.23;;;;;;;-0.03;100.00;99198.53;5007029;28;20452;-70
2023/01/19 00:15:35;;;;;;;23.67;16.33;;;;;;;-0.16;100.00;99195.44;5008525;28;20032;-69
2023/01/19 00:18:01;;;;;;;21.98;15.55;;;;;;;-0.04;100.00;99213.22;5008588;28;20035;-69
2023/01/19 00:20:26;;;;;;;23.48;15.70;;;;;;;-0.11;100.00;99203.06;5004463;28;20128;-69
2023/01/19 00:22:51;;;;;;;23.17;16.20;;;;;;;-0.03;100.00;99212.31;4988904;28;20036;-70
2023/01/19 00:25:17;;;;;;;19.15;14.00;;;;;;;-0.15;100.00;99199.72;5007072;28;20064;-68
2023/01/19 00:27:48;;;;;;;22.33;15.75;;;;;;;-0.10;100.00;99210.75;5003069;28;20055;-69
2023/01/19 00:30:16;;;;;;;24.27;15.27;;;;;;;-0.39;100.00;99161.66;4991286;28;20035;-69
2023/01/19 00:32:41;;;;;;;23.10;15.95;;;;;;;-0.06;100.00;99217.53;4988267;28;20040;-68
2023/01/19 00:35:07;;;;;;;20.70;15.13;;;;;;;-0.22;100.00;99200.78;4988278;28;20913;-70
2023/01/19 00:37:32;;;;;;;26.33;16.65;;;;;;;-0.24;100.00;99206.88;5005936;28;20083;-69
2023/01/19 00:39:58;;;;;;;26.25;16.42;;;;;;;-0.13;100.00;99221.16;5005577;28;20032;-69
2023/01/19 00:45:09;;;;;;;26.77;15.77;;;;;;;-0.17;100.00;99221.31;5007238;28;20995;-69
2023/01/19 00:47:34;;;;;;;23.60;15.90;;;;;;;-0.53;100.00;99162.03;5005931;28;20135;-69
2023/01/19 00:50:00;;;;;;;23.08;15.20;;;;;;;-0.25;100.00;99215.50;5004568;28;20022;-69
2023/01/19 00:52:25;;;;;;;28.95;16.35;;;;;;;-0.34;100.00;99213.16;4986198;28;20021;-69
2023/01/19 00:54:50;;;;;;;22.13;15.60;;;;;;;-0.39;100.00;99196.94;5007618;28;20036;-69
2023/01/19 00:57:18;;;;;;;22.83;16.75;;;;;;;-0.20;100.00;99235.13;5007186;28;20033;-68
2023/01/19 00:59:43;;;;;;;23.10;16.60;;;;;;;-0.32;100.00;99209.66;5005391;28;20017;-68
2023/01/19 01:02:10;;;;;;;20.90;15.70;;;;;;;-0.28;100.00;99211.25;5007569;28;20952;-69
2023/01/19 01:04:36;;;;;;;24.40;16.52;;;;;;;-0.16;100.00;99231.59;5007836;28;20871;-69
2023/01/19 01:07:01;;;;;;;24.75;16.75;;;;;;;-0.18;100.00;99228.19;5007737;28;20048;-69
2023/01/19 01:09:27;;;;;;;24.20;17.50;;;;;;;-0.20;100.00;99224.78;5006044;28;20921;-69
2023/01/19 01:11:52;;;;;;;23.67;16.90;;;;;;;-0.16;100.00;99225.56;5007142;28;20024;-69
2023/01/19 01:14:18;;;;;;;29.80;17.58;;;;;;;-0.23;100.00;99214.56;4973257;28;20082;-69
2023/01/19 01:16:43;;;;;;;21.20;16.63;;;;;;;-0.24;100.00;99227.53;4980644;28;20215;-69
2023/01/19 01:19:09;;;;;;;26.85;15.95;;;;;;;-0.18;100.00;99233.38;5005562;28;20739;-69
2023/01/19 01:21:36;;;;;;;27.52;15.80;;;;;;;-0.30;100.00;99213.03;5006147;28;20781;-69
2023/01/19 01:24:01;;;;;;;28.67;17.33;;;;;;;-0.12;100.00;99235.78;5001381;28;20136;-69
2023/01/19 01:26:27;;;;;;;24.65;17.27;;;;;;;-0.17;100.00;99229.88;4981258;28;20040;-69
2023/01/19 01:28:52;;;;;;;23.10;16.45;;;;;;;-0.11;100.00;99227.16;5000531;28;20053;-69
2023/01/19 01:31:17;;;;;;;20.98;16.60;;;;;;;-0.06;100.00;99238.19;4998678;28;20036;-68
2023/01/19 01:33:43;;;;;;;25.38;16.98;;;;;;;-0.19;100.00;99211.03;5005418;28;20083;-69
2023/01/19 01:36:10;;;;;;;27.25;16.45;;;;;;;-0.17;100.00;99224.72;5005117;28;20104;-69
2023/01/19 01:38:36;;;;;;;23.48;17.23;;;;;;;-0.16;100.00;99230.72;4988094;28;20025;-68
2023/01/19 01:41:01;;;;;;;25.00;17.48;;;;;;;-0.37;100.00;99190.84;5006209;28;20900;-68
2023/01/19 01:43:41;;;;;;;24.25;17.60;;;;;;;-0.17;100.00;99224.72;4988200;28;20033;-69
2023/01/19 01:46:06;;;;;;;25.63;16.38;;;;;;;-0.16;100.00;99231.59;5005299;28;20137;-69
2023/01/19 01:48:32;;;;;;;22.67;17.05;;;;;;;-0.25;100.00;99216.34;5004287;28;20948;-69
2023/01/19 01:53:46;;;;;;;23.98;16.20;;;;;;;-0.28;100.00;99215.56;5021424;28;21205;-69
2023/01/19 01:56:15;;;;;;;23.20;16.95;;;;;;;-0.23;100.00;99236.94;5007398;28;20032;-69
2023/01/19 01:58:41;;;;;;;29.70;17.30;;;;;;;-0.22;100.00;99231.75;5004084;28;20025;-70
2023/01/19 02:03:53;;;;;;;25.85;17.80;;;;;;;-0.38;100.00;99199.47;4998687;28;20043;-70
2023/01/19 02:06:20;;;;;;;22.73;18.08;;;;;;;-0.14;100.00;99239.31;4992466;28;20135;-69
2023/01/19 02:14:20;;;;;;;25.65;17.10;;;;;;;-0.16;100.00;99236.75;4996130;28;20049;-68
2023/01/19 02:16:46;;;;;;;26.55;17.35;;;;;;;-0.26;100.00;99229.28;5024018;28;20188;-68
2023/01/19 02:19:18;;;;;;;25.05;16.88;;;;;;;-0.13;100.00;99234.06;4999128;28;20140;-68
2023/01/19 02:22:08;;;;;;;24.95;16.75;;;;;;;-0.09;100.00;99238.28;5006024;28;20032;-69
2023/01/19 02:24:34;;;;;;;22.33;17.38;;;;;;;-0.23;100.00;99216.28;5002754;28;20228;-69
2023/01/19 02:27:00;;;;;;;29.05;17.70;;;;;;;-0.10;100.00;99252.06;4984859;28;20641;-69
2023/01/19 02:29:26;;;;;;;29.98;17.23;;;;;;;-0.06;100.00;99243.34;5009479;28;20910;-69
2023/01/19 02:31:54;;;;;;;27.42;17.38;;;;;;;-0.12;100.00;99238.38;5003590;28;20021;-68
2023/01/19 02:34:20;;;;;;;27.30;17.63;;;;;;;-0.02;100.00;99229.50;5007758;28;20876;-69
2023/01/19 02:36:52;;;;;;;24.10;17.30;;;;;;;0.02;100.00;99232.00;4989322;28;20079;-69
2023/01/19 02:39:19;;;;;;;20.80;15.95;;;;;;;-0.01;100.00;99215.72;4987627;28;20550;-69
2023/01/19 02:41:48;;;;;;;25.27;16.30;;;;;;;0.11;100.00;99230.00;5007026;28;20025;-69
2023/01/19 02:44:13;;;;;;;26.42;15.55;;;;;;;0.09;100.00;99236.09;5022230;28;20025;-69
2023/01/19 02:46:39;;;;;;;24.67;15.85;;;;;;;-0.43;100.00;99143.72;4990038;28;20875;-70
2023/01/19 02:49:05;;;;;;;24.35;15.73;;;;;;;0.11;100.00;99232.59;4999278;28;20923;-69
2023/01/19 02:51:31;;;;;;;23.20;16.08;;;;;;;0.17;100.00;99244.50;4980952;28;20057;-69
2023/01/19 02:54:12;;;;;;;21.20;15.20;;;;;;;0.21;100.00;99246.09;4990720;28;20051;-70
2023/01/19 02:56:46;;;;;;;26.10;16.48;;;;;;;0.20;100.00;99249.59;4990934;28;20041;-70
2023/01/19 02:59:24;;;;;;;25.70;15.93;;;;;;;0.21;100.00;99246.09;5008230;28;20024;-70
2023/01/19 03:02:16;;;;;;;23.25;15.50;;;;;;;0.15;100.00;99238.50;5006362;28;20032;-70
2023/01/19 03:04:50;;;;;;;28.38;16.77;;;;;;;0.20;100.00;99249.59;4971651;28;20036;-70
2023/01/19 03:07:20;;;;;;;;;;;;;;;0.21;100.00;99256.41;5008188;28;20393;-70
2023/01/19 03:09:56;;;;;;;27.23;17.42;;;;;;;0.16;100.00;99245.38;5023477;28;19909;-70
2023/01/19 03:12:40;;;;;;;22.25;16.75;;;;;;;0.19;100.00;99253.03;5002060;28;20025;-70
2023/01/19 03:15:19;;;;;;;22.23;16.13;;;;;;;0.09;100.00;99246.44;4990231;28;20790;-69
2023/01/19 03:17:48;;;;;;;27.83;16.92;;;;;;;0.07;100.00;99237.91;4989139;28;20144;-70
2023/01/19 03:20:17;;;;;;;30.92;17.27;;;;;;;0.03;100.00;99231.13;5006731;28;20092;-69
2023/01/19 03:22:43;;;;;;;22.60;15.95;;;;;;;0.13;100.00;99254.06;5008081;28;20035;-69
2023/01/19 03:25:10;;;;;;;28.15;17.77;;;;;;;0.13;100.00;99253.22;4989523;28;20130;-70
2023/01/19 03:27:39;;;;;;;29.52;18.30;;;;;;;0.10;100.00;99240.38;5007217;28;20033;-70
2023/01/19 03:30:10;;;;;;;24.05;17.13;;;;;;;0.16;100.00;99261.72;5007989;28;20086;-69
2023/01/19 03:32:40;;;;;;;29.05;16.50;;;;;;;0.22;100.00;99258.13;4984449;28;20030;-70
2023/01/19 03:35:10;;;;;;;30.08;16.23;;;;;;;0.23;100.00;99249.50;4990720;28;20021;-69
2023/01/19 03:37:38;;;;;;;28.70;17.90;;;;;;;0.23;100.00;99255.50;5021736;28;20028;-69
2023/01/19 03:40:04;;;;;;;26.65;17.77;;;;;;;0.17;100.00;99249.66;5017572;28;20131;-69
2023/01/19 03:42:30;;;;;;;30.05;16.77;;;;;;;0.21;100.00;99246.94;4970525;28;20053;-70
2023/01/19 03:44:57;;;;;;;28.80;16.00;;;;;;;0.33;100.00;99254.38;4988397;28;21002;-69
2023/01/19 03:47:22;;;;;;;25.70;16.42;;;;;;;0.34;100.00;99260.38;5008822;28;20025;-70
2023/01/19 03:49:49;;;;;;;23.55;16.27;;;;;;;-0.17;100.00;99172.28;5006927;28;20875;-69
2023/01/19 03:52:15;;;;;;;24.45;16.98;;;;;;;0.33;100.00;99251.78;5007463;28;20041;-70
2023/01/19 03:54:40;;;;;;;24.13;16.98;;;;;;;0.35;100.00;99262.06;4999928;28;20808;-70
2023/01/19 03:57:05;;;;;;;21.98;15.68;;;;;;;0.42;100.00;99272.19;5007577;28;20092;-70
2023/01/19 03:59:31;;;;;;;22.98;15.55;;;;;;;0.28;100.00;99257.94;4989362;28;20024;-69
2023/01/19 04:01:56;;;;;;;25.13;16.85;;;;;;;0.35;100.00;99275.84;5007490;28;20941;-69
2023/01/19 04:04:22;;;;;;;32.08;17.83;;;;;;;-0.35;100.00;99171.03;5007247;28;20017;-69
2023/01/19 04:06:47;;;;;;;25.98;17.35;;;;;;;-0.16;100.00;99220.41;4991338;28;20078;-69
2023/01/19 04:09:13;;;;;;;30.40;18.73;;;;;;;0.08;100.00;99262.81;4998106;28;20028;-70
2023/01/19 04:11:38;;;;;;;28.10;18.13;;;;;;;0.26;100.00;99295.91;4989201;28;20033;-69
2023/01/19 04:14:04;;;;;;;31.08;18.35;;;;;;;0.26;100.00;99295.91;5006782;28;20983;-70
2023/01/19 04:16:29;;;;;;;30.00;18.27;;;;;;;0.28;100.00;99300.13;4988605;28;20037;-70
2023/01/19 04:18:55;;;;;;;29.13;17.40;;;;;;;0.23;100.00;99285.66;5002561;28;20906;-69
2023/01/19 04:21:20;;;;;;;27.33;18.00;;;;;;;0.21;100.00;99287.41;4982084;28;20035;-69
2023/01/19 04:23:46;;;;;;;31.33;20.10;;;;;;;0.31;100.00;99299.19;5005987;28;20079;-70
2023/01/19 04:26:11;;;;;;;31.50;19.17;;;;;;;0.33;100.00;99302.59;5003396;28;20033;-69
2023/01/19 04:28:37;;;;;;;25.02;19.05;;;;;;;0.20;100.00;99290.91;5007120;28;20020;-69
2023/01/19 04:31:03;;;;;;;31.50;18.65;;;;;;;0.20;100.00;99301.25;5006815;28;20030;-69
2023/01/19 04:33:29;;;;;;;27.73;19.92;;;;;;;-0.39;100.00;99208.09;5008958;28;20021;-70
2023/01/19 04:35:55;;;;;;;34.45;21.23;;;;;;;0.13;100.00;99302.28;4979204;28;20128;-69
2023/01/19 04:38:21;;;;;;;36.65;21.83;;;;;;;0.07;100.00;99297.28;5008783;28;20033;-70
2023/01/19 04:40:48;;;;;;;47.05;23.63;;;;;;;0.02;100.00;99302.56;4980786;28;20128;-71
2023/01/19 04:43:14;;;;;;;40.22;21.85;;;;;;;-0.05;100.00;99299.28;5023594;28;20943;-70
2023/01/19 04:45:39;;;;;;;34.65;22.83;;;;;;;-0.01;100.00;99300.91;5019017;28;20033;-70
2023/01/19 04:48:05;;;;;;;36.67;22.33;;;;;;;-0.26;100.00;99265.41;5005909;28;20136;-71
2023/01/19 04:50:31;;;;;;;36.50;23.80;;;;;;;-0.25;100.00;99267.09;4987695;28;20022;-71
2023/01/19 04:52:56;;;;;;;39.58;25.45;;;;;;;-0.14;100.00;99301.25;5006220;28;20369;-72
2023/01/19 04:55:22;;;;;;;40.42;24.95;;;;;;;-0.17;100.00;99286.66;5003526;28;20945;-71
2023/01/19 04:57:47;;;;;;;43.33;26.60;;;;;;;-0.19;100.00;99298.75;5005452;28;20029;-71
2023/01/19 05:00:13;;;;;;;39.58;26.30;;;;;;;-0.14;100.00;99309.00;4997225;28;20060;-72
2023/01/19 05:02:40;;;;;;;44.17;26.52;;;;;;;-0.39;100.00;99277.75;5002475;28;20989;-70
2023/01/19 05:05:06;;;;;;;45.67;26.75;;;;;;;-0.19;100.00;99309.09;4999019;28;20029;-72
2023/01/19 05:07:32;;;;;;;42.78;28.02;;;;;;;-0.23;100.00;99307.47;5005251;28;20080;-72
2023/01/19 05:09:57;;;;;;;46.80;28.90;;;;;;;-0.19;100.00;99318.56;5004812;28;20031;-73
2023/01/19 05:12:22;;;;;;;46.42;27.30;;;;;;;-0.38;100.00;99292.38;4992547;28;20092;-74
2023/01/19 05:14:48;;;;;;;46.40;26.83;;;;;;;-0.22;100.00;99310.91;5004944;28;20017;-73
2023/01/19 05:17:13;;;;;;;42.95;29.00;;;;;;;-0.18;100.00;99315.97;4990922;28;20075;-72
2023/01/19 05:19:39;;;;;;;44.35;29.60;;;;;;;-0.21;100.00;99310.03;5002582;28;20208;-72
2023/01/19 05:22:05;;;;;;;41.67;27.27;;;;;;;-0.14;100.00;99309.84;4988771;28;20894;-72
2023/01/19 05:24:30;;;;;;;44.60;28.55;;;;;;;-0.12;100.00;99315.78;4988994;28;20035;-72
2023/01/19 05:26:56;;;;;;;50.97;30.13;;;;;;;-0.21;100.00;99305.72;4978497;28;20034;-72
2023/01/19 05:29:21;;;;;;;53.70;28.20;;;;;;;-0.05;100.00;99319.06;5005386;28;20032;-72
2023/01/19 05:31:47;;;;;;;43.60;27.02;;;;;;;-0.05;100.00;99317.34;4987466;28;20078;-72
2023/01/19 05:34:13;;;;;;;52.10;29.85;;;;;;;-0.02;100.00;99330.19;5005653;28;20928;-72
2023/01/19 05:36:39;;;;;;;51.33;30.30;;;;;;;-0.06;100.00;99330.28;4971609;28;20884;-72
2023/01/19 05:39:04;;;;;;;46.15;28.50;;;;;;;-0.02;100.00;99334.47;5005573;28;20083;-71
2023/01/19 05:41:29;;;;;;;45.13;28.75;;;;;;;-0.08;100.00;99339.81;4983303;28;20024;-69
2023/01/19 05:43:55;;;;;;;49.95;30.05;;;;;;;-0.06;100.00;99346.63;5005288;28;20029;-70
2023/01/19 05:46:20;;;;;;;43.38;27.63;;;;;;;-0.16;100.00;99329.66;4979688;28;20028;-73
2023/01/19 05:48:46;;;;;;;42.13;28.02;;;;;;;-0.16;100.00;99339.97;5002162;28;20030;-73
2023/01/19 05:51:11;;;;;;;40.55;26.58;;;;;;;-0.26;100.00;99328.19;5000493;28;20025;-72
2023/01/19 05:53:37;;;;;;;48.50;29.77;;;;;;;-0.11;100.00;99348.47;5006119;28;20115;-72
2023/01/19 05:56:04;;;;;;;46.70;29.67;;;;;;;-0.10;100.00;99365.63;5004584;28;21571;-73
2023/01/19 05:58:31;;;;;;;46.47;29.30;;;;;;;-0.10;100.00;99390.59;5005479;28;20492;-76
2023/01/19 06:01:01;;;;;;;46.67;28.73;;;;;;;-0.14;100.00;99395.03;4988509;28;20029;-74
2023/01/19 06:03:26;;;;;;;46.45;30.25;;;;;;;-0.15;100.00;99392.47;4988476;28;20765;-73
2023/01/19 06:05:52;;;;;;;54.00;31.30;;;;;;;-0.14;100.00;99389.00;5006033;28;20088;-75
2023/01/19 06:08:18;;;;;;;53.85;30.02;;;;;;;-0.17;100.00;99394.25;4992030;28;20025;-78
2023/01/19 06:10:43;;;;;;;48.70;31.08;;;;;;;-0.38;100.00;99371.50;5022430;28;20032;-81
2023/01/19 06:13:10;;;;;;;41.45;29.25;;;;;;;-0.36;100.00;99380.88;4997940;28;20893;-79
2023/01/19 06:15:36;;;;;;;45.22;30.65;;;;;;;-0.35;100.00;99395.50;5005693;28;20029;-78
2023/01/19 06:18:01;;;;;;;39.90;28.08;;;;;;;-0.49;100.00;99366.56;5005887;28;20025;-77
2023/01/19 06:20:27;;;;;;;46.08;29.30;;;;;;;-0.33;100.00;99393.72;5009397;28;20136;-77
2023/01/19 06:22:55;;;;;;;49.30;28.52;;;;;;;-0.38;100.00;99384.41;5009196;28;20139;-76
2023/01/19 06:25:21;;;;;;;56.75;32.80;;;;;;;-0.39;100.00;99383.53;5004769;28;20101;-77
2023/01/19 06:27:46;;;;;;;56.22;32.85;;;;;;;-0.32;100.00;99394.56;5004534;28;20218;-79
2023/01/19 06:30:12;;;;;;;54.42;35.33;;;;;;;-0.35;100.00;99379.16;5004855;28;20025;-80
2023/01/19 06:32:38;;;;;;;51.55;35.47;;;;;;;-1.14;100.00;99278.63;5005926;28;20041;-77
2023/01/19 06:35:04;;;;;;;55.75;35.10;;;;;;;-0.38;100.00;99382.66;5006155;28;20871;-76
2023/01/19 06:37:30;;;;;;;48.92;33.92;;;;;;;-0.34;100.00;99397.22;5004428;28;20032;-79
2023/01/19 06:39:55;;;;;;;53.10;35.33;;;;;;;-0.80;100.00;99343.19;4991293;28;20888;-77
2023/01/19 06:42:21;;;;;;;46.50;34.58;;;;;;;-0.34;100.00;99412.69;4991719;28;20044;-76
2023/01/19 06:44:46;;;;;;;54.10;36.30;;;;;;;-0.67;100.00;99356.66;5008469;28;20025;-77
2023/01/19 06:47:13;;;;;;;55.08;37.28;;;;;;;-0.39;100.00;99409.34;5009912;28;20025;-78
2023/01/19 06:49:39;;;;;;;52.22;36.50;;;;;;;-0.65;100.00;99376.38;4992700;28;20818;-79
2023/01/19 06:52:04;;;;;;;57.15;37.67;;;;;;;-0.83;100.00;99338.09;5027213;28;20021;-78
2023/01/19 06:54:30;;;;;;;60.65;38.55;;;;;;;-0.43;100.00;99401.69;5014125;28;20874;-77
2023/01/19 06:56:55;;;;;;;60.03;37.33;;;;;;;-0.37;100.00;99409.31;4998034;28;20875;-75
2023/01/19 06:59:21;;;;;;;60.13;39.28;;;;;;;-0.73;100.00;99373.13;5014829;28;21000;-78
2023/01/19 07:01:46;;;;;;;56.97;37.80;;;;;;;-0.39;100.00;99413.66;5016616;28;20185;-76
2023/01/19 07:04:13;;;;;;;58.20;39.92;;;;;;;-0.53;100.00;99398.47;5015159;28;20895;-77
2023/01/19 07:06:38;;;;;;;64.65;39.97;;;;;;;-0.35;100.00;99423.88;5016004;28;20087;-77
2023/01/19 07:09:06;;;;;;;68.30;40.45;;;;;;;-0.33;100.00;99427.25;4982228;28;20130;-78
2023/01/19 07:11:32;;;;;;;56.22;39.35;;;;;;;-0.37;100.00;99417.88;5013602;28;20188;-76
2023/01/19 07:13:58;;;;;;;65.63;40.90;;;;;;;-0.37;100.00;99424.81;4989156;28;20946;-76
2023/01/19 07:16:23;;;;;;;58.25;39.95;;;;;;;-0.41;100.00;99420.59;5002890;28;20136;-76
2023/01/19 07:18:49;;;;;;;60.83;42.75;;;;;;;-0.34;100.00;99437.63;4996855;28;20902;-76
2023/01/19 07:21:15;;;;;;;69.00;41.90;;;;;;;-0.38;100.00;99426.53;4992724;28;20088;-75
2023/01/19 07:23:42;;;;;;;66.13;43.58;;;;;;;-0.83;100.00;99360.44;4987852;28;20117;-76
2023/01/19 07:26:08;;;;;;;61.85;42.70;;;;;;;-0.53;100.00;99408.78;4985012;28;20041;-75
2023/01/19 07:28:33;;;;;;;67.47;43.80;;;;;;;-0.33;100.00;99442.75;5006654;28;20025;-74
2023/01/19 07:30:59;;;;;;;65.97;41.13;;;;;;;-0.37;100.00;99446.28;4990193;28;20834;-73
2023/01/19 07:33:25;;;;;;;73.57;42.80;;;;;;;-0.36;100.00;99444.53;4999832;28;20025;-73
2023/01/19 07:35:51;;;;;;;79.03;47.83;;;;;;;-0.31;100.00;99459.06;5000721;28;20124;-73
2023/01/19 07:38:17;;;;;;;66.05;44.10;;;;;;;-0.30;100.00;99465.03;4988150;28;20028;-73
2023/01/19 07:40:43;;;;;;;64.68;42.80;;;;;;;-0.29;100.00;99461.59;4986904;28;20031;-73
2023/01/19 07:43:09;;;;;;;75.45;45.17;;;;;;;-0.29;100.00;99456.44;5007085;28;20040;-73
2023/01/19 07:45:38;;;;;;;90.53;50.05;;;;;;;-0.26;100.00;99471.84;4989583;28;20028;-72
2023/01/19 07:48:04;;;;;;;70.95;42.17;;;;;;;-0.21;100.00;99475.19;4988705;28;20028;-72
2023/01/19 07:50:29;;;;;;;75.75;44.00;;;;;;;-0.30;100.00;99460.75;4989207;28;20848;-72
2023/01/19 07:52:55;;;;;;;73.65;46.08;;;;;;;-0.20;100.00;99482.03;5007085;28;20036;-72
2023/01/19 07:55:22;;;;;;;79.25;44.85;;;;;;;-0.21;100.00;99481.22;4988898;28;20090;-72
2023/01/19 07:57:50;;;;;;;71.75;43.95;;;;;;;-0.19;100.00;99484.59;5020962;28;20021;-72
2023/01/19 08:00:20;;;;;;;73.75;42.72;;;;;;;-0.25;100.00;99469.25;5007160;28;20029;-72
2023/01/19 08:02:50;;;;;;;71.00;41.15;;;;;;;-0.19;100.00;99482.00;4989821;28;20935;-73
2023/01/19 08:05:17;;;;;;;73.55;44.83;;;;;;;-0.22;100.00;99469.19;4990612;28;20017;-73
2023/01/19 08:07:43;;;;;;;79.35;43.58;;;;;;;-0.54;100.00;99422.56;4986595;28;20036;-74
2023/01/19 08:10:10;;;;;;;77.45;43.47;;;;;;;-0.17;100.00;99482.00;5010067;28;20372;-74
2023/01/19 08:12:35;;;;;;;73.05;43.20;;;;;;;-0.22;100.00;99469.19;4998941;28;20025;-74
2023/01/19 08:15:01;;;;;;;72.97;40.90;;;;;;;-0.17;100.00;99487.97;4988222;28;20102;-74
2023/01/19 08:17:26;;;;;;;67.95;43.92;;;;;;;-0.18;100.00;99486.31;5006360;28;20028;-75
2023/01/19 08:19:51;;;;;;;67.78;41.55;;;;;;;-0.17;100.00;99482.81;4978249;28;20040;-75
2023/01/19 08:22:17;;;;;;;76.78;45.03;;;;;;;-0.15;100.00;99490.53;5007240;28;20037;-75
2023/01/19 08:24:42;;;;;;;78.90;47.50;;;;;;;-0.20;100.00;99482.88;4996671;28;20931;-75
2023/01/19 08:27:08;;;;;;;76.15;45.03;;;;;;;-0.06;100.00;99503.25;5004135;28;20033;-73
2023/01/19 08:29:34;;;;;;;68.57;40.45;;;;;;;-0.16;100.00;99491.41;5014370;28;20132;-72
2023/01/19 08:32:01;;;;;;;76.28;42.08;;;;;;;-0.05;100.00;99513.53;4989274;28;20029;-73
2023/01/19 08:34:29;;;;;;;65.43;41.03;;;;;;;-0.02;100.00;99508.31;4988783;28;20799;-72
2023/01/19 08:36:55;;;;;;;72.57;41.75;;;;;;;-0.06;100.00;99495.50;4976846;28;20065;-73
2023/01/19 08:39:22;;;;;;;72.97;43.25;;;;;;;-0.04;100.00;99504.94;5005640;28;20025;-73
2023/01/19 08:41:48;;;;;;;68.28;40.80;;;;;;;-0.04;100.00;99499.75;4976163;28;20616;-73
2023/01/19 08:44:14;;;;;;;71.05;41.60;;;;;;;0.03;100.00;99515.97;5005688;28;20041;-73
2023/01/19 08:46:40;;;;;;;67.07;40.30;;;;;;;0.03;100.00;99517.69;5004640;28;20033;-73
2023/01/19 08:49:06;;;;;;;75.00;39.72;;;;;;;0.06;100.00;99521.06;4986150;28;20320;-73
2023/01/19 08:51:31;;;;;;;79.15;40.45;;;;;;;0.05;100.00;99518.50;4997336;28;20025;-72
2023/01/19 08:53:57;;;;;;;64.82;39.42;;;;;;;0.05;100.00;99519.34;4982216;28;20134;-74
2023/01/19 08:56:22;;;;;;;60.90;38.30;;;;;;;0.07;100.00;99521.91;4996117;28;20097;-73
2023/01/19 08:58:50;;;;;;;67.18;38.45;;;;;;;0.04;100.00;99516.78;5007033;28;20025;-73
2023/01/19 09:01:15;;;;;;;68.53;38.20;;;;;;;-0.23;100.00;99472.63;4989345;28;20059;-73
2023/01/19 09:03:42;;;;;;;71.53;39.15;;;;;;;0.09;100.00;99528.75;4997673;28;20025;-72
2023/01/19 09:06:09;;;;;;;65.63;38.45;;;;;;;0.12;100.00;99525.22;5000483;28;20383;-73
2023/01/19 09:08:34;;;;;;;64.10;40.90;;;;;;;0.17;100.00;99533.75;5007876;28;20914;-73
2023/01/19 09:11:00;;;;;;;81.57;45.42;;;;;;;-0.01;100.00;99504.00;5006642;28;20029;-73
2023/01/19 09:13:26;;;;;;;71.95;39.45;;;;;;;0.23;100.00;99552.53;5000013;28;20154;-73
2023/01/19 09:15:52;;;;;;;69.07;38.08;;;;;;;0.21;100.00;99540.50;4994828;28;20397;-73
2023/01/19 09:18:20;;;;;;;68.00;38.72;;;;;;;0.28;100.00;99547.25;4989311;28;20032;-74
2023/01/19 09:20:48;;;;;;;62.13;38.10;;;;;;;-0.52;100.00;99424.25;4989982;28;20021;-74
2023/01/19 09:23:15;;;;;;;72.68;42.50;;;;;;;0.30;100.00;99555.81;4989005;28;20018;-74
2023/01/19 09:25:43;;;;;;;65.15;41.45;;;;;;;0.30;100.00;99555.81;5023269;28;20020;-72
2023/01/19 09:28:13;;;;;;;67.15;40.72;;;;;;;0.25;100.00;99547.31;5006732;28;20969;-73
2023/01/19 09:30:40;;;;;;;70.70;42.20;;;;;;;0.33;100.00;99560.91;4982509;28;20110;-74
2023/01/19 09:33:09;;;;;;;64.95;40.42;;;;;;;0.32;100.00;99554.91;5022290;28;20082;-74
2023/01/19 09:35:36;;;;;;;68.53;44.05;;;;;;;0.03;100.00;99509.94;4974119;28;20013;-74
2023/01/19 09:38:01;;;;;;;68.32;43.75;;;;;;;0.28;100.00;99542.06;5002995;28;20865;-73
2023/01/19 09:40:27;;;;;;;76.07;39.00;;;;;;;0.39;100.00;99565.94;4988549;28;20052;-75
2023/01/19 09:43:00;;;;;;;59.88;38.88;;;;;;;-0.06;100.00;99498.94;4996045;28;20967;-72
2023/01/19 09:45:34;;;;;;;66.85;38.17;;;;;;;0.34;100.00;99567.75;4978997;28;20447;-73
2023/01/19 09:47:59;;;;;;;;;;;;;;;0.41;100.00;99579.66;4983141;28;20060;-75
2023/01/19 09:50:32;;;;;;;65.18;36.83;;;;;;;0.43;100.00;99581.34;4987698;28;19909;-74
2023/01/19 09:53:10;;;;;;;68.45;37.80;;;;;;;0.45;100.00;99578.72;5004848;28;20033;-73
2023/01/19 09:55:35;;;;;;;75.90;38.97;;;;;;;0.33;100.00;99555.75;5006347;28;20135;-73
2023/01/19 09:58:03;;;;;;;58.45;37.00;;;;;;;0.48;100.00;99573.47;5006836;28;20029;-73
2023/01/19 10:00:29;;;;;;;63.42;36.20;;;;;;;0.43;100.00;99570.16;5012677;28;20024;-73
2023/01/19 10:02:59;;;;;;;71.80;37.00;;;;;;;0.66;100.00;99596.31;4989426;28;20036;-73
2023/01/19 10:05:36;;;;;;;67.93;36.97;;;;;;;0.63;100.00;99580.03;4983330;28;20029;-73
2023/01/19 10:08:20;;;;;;;59.45;36.38;;;;;;;0.68;100.00;99586.78;4984679;28;20029;-73
2023/01/19 10:10:51;;;;;;;66.13;36.08;;;;;;;0.65;100.00;99573.09;5020971;28;20056;-73
2023/01/19 10:13:22;;;;;;;53.55;33.38;;;;;;;0.81;100.00;99597.72;5000849;28;20092;-74
2023/01/19 10:15:57;;;;;;;58.58;35.67;;;;;;;0.80;100.00;99591.69;5010888;28;20359;-73
2023/01/19 10:18:31;;;;;;;68.68;39.22;;;;;;;0.73;100.00;99582.38;4998217;28;20033;-73
2023/01/19 10:21:11;;;;;;;53.60;34.90;;;;;;;0.93;100.00;99600.84;4993604;28;20040;-73
2023/01/19 10:23:50;;;;;;;53.25;34.03;;;;;;;0.92;100.00;99593.97;4990731;28;20032;-72
2023/01/19 10:26:16;;;;;;;60.50;35.67;;;;;;;1.02;100.00;99605.78;5009526;28;20037;-72
2023/01/19 10:28:42;;;;;;;58.15;36.08;;;;;;;1.05;100.00;99601.44;4992148;28;20021;-72
2023/01/19 10:31:08;;;;;;;62.38;35.17;;;;;;;1.06;100.00;99597.94;4970561;28;20021;-72
2023/01/19 10:33:35;;;;;;;63.13;34.33;;;;;;;1.02;100.00;99589.41;5005574;28;20350;-72
2023/01/19 10:36:06;;;;;;;56.03;33.78;;;;;;;1.02;100.00;99595.44;4992068;28;20032;-72
2023/01/19 10:38:33;;;;;;;53.83;33.40;;;;;;;1.13;100.00;99607.25;5004740;28;20029;-72
2023/01/19 10:41:13;;;;;;;54.25;36.88;;;;;;;1.03;100.00;99599.72;4990840;28;20033;-72
2023/01/19 10:43:42;;;;;;;55.13;35.92;;;;;;;1.02;100.00;99582.50;4992594;28;20143;-72
2023/01/19 10:46:16;;;;;;;54.75;34.60;;;;;;;1.13;100.00;99599.50;5009045;28;20095;-72
2023/01/19 10:48:42;;;;;;;53.92;33.88;;;;;;;1.28;100.00;99596.53;5009445;28;20083;-72
2023/01/19 10:51:10;;;;;;;50.85;32.67;;;;;;;1.43;100.00;99593.53;5002836;28;20897;-72
2023/01/19 10:53:35;;;;;;;53.53;33.33;;;;;;;1.74;100.00;99601.34;5004257;28;20025;-71
2023/01/19 10:56:14;;;;;;;50.03;32.42;;;;;;;1.73;100.00;99551.28;5009019;28;20025;-72
2023/01/19 10:58:40;;;;;;;44.85;29.52;;;;;;;1.77;100.00;99552.91;4991563;28;20032;-70
2023/01/19 11:01:23;;;;;;;48.83;28.08;;;;;;;2.10;100.00;99600.28;4991369;28;20128;-70
2023/01/19 11:03:49;;;;;;;42.60;27.30;;;;;;;2.22;100.00;99593.91;4992164;28;20143;-72
2023/01/19 11:06:14;;;;;;;46.72;27.08;;;;;;;2.42;100.00;99601.94;5009448;28;20303;-71
2023/01/19 11:08:41;;;;;;;40.00;26.15;;;;;;;2.29;100.00;99617.03;4990470;28;20024;-72
2023/01/19 11:11:07;;;;;;;42.58;28.08;;;;;;;1.45;100.00;99501.19;4985904;28;20099;-71
2023/01/19 11:13:34;;;;;;;37.70;24.95;;;;;;;1.88;100.00;99605.25;4990759;28;20033;-70
2023/01/19 11:16:05;;;;;;;40.65;26.92;;;;;;;1.62;100.00;99587.00;4981105;28;20071;-71
2023/01/19 11:18:37;;;;;;;45.78;27.63;;;;;;;1.68;100.00;99610.13;5009165;28;20043;-71
2023/01/19 11:21:06;;;;;;;42.58;27.73;;;;;;;1.69;100.00;99604.03;5008652;28;20032;-70
2023/01/19 11:23:41;;;;;;;44.72;27.65;;;;;;;1.43;100.00;99565.91;5009836;28;20025;-71
2023/01/19 11:26:08;;;;;;;44.15;27.52;;;;;;;1.72;100.00;99601.38;5009294;28;20055;-71